createdAt,value
2018-01-25T00:00:30.201Z,75.78
2018-01-25T00:01:14.726Z,75.59
2018-01-25T00:01:56.850Z,75.49
2018-01-25T00:02:37.354Z,75.3
2018-01-25T00:03:18.376Z,75.68
2018-01-25T00:04:02.347Z,75.49
2018-01-25T00:04:43.215Z,75.68
2018-01-25T00:05:26.368Z,76.35
2018-01-25T00:06:13.229Z,76.16
2018-01-25T00:06:54.983Z,76.03
2018-01-25T00:10:01.097Z,76.54
2018-01-25T00:10:42.000Z,76.16
2018-01-25T00:11:22.509Z,76.25
2018-01-25T00:12:02.901Z,76.35
2018-01-25T00:12:43.516Z,76.25
2018-01-25T00:13:24.034Z,76.4
2018-01-25T00:14:04.404Z,76.6
2018-01-25T00:14:45.013Z,76.5
2018-01-25T00:15:25.774Z,76.88
2018-01-25T00:16:06.106Z,77.21
2018-01-25T00:16:46.651Z,77.36
2018-01-25T00:17:29.083Z,77.26
2018-01-25T00:18:10.426Z,77.26
2018-01-25T00:18:50.822Z,77.45
2018-01-25T00:19:31.168Z,77.69
2018-01-25T00:20:11.896Z,77.36
2018-01-25T00:20:52.579Z,77.5
2018-01-25T00:21:34.037Z,77.36
2018-01-25T00:22:15.434Z,76.88
2018-01-25T00:22:55.899Z,76.73
2018-01-25T00:23:36.538Z,76.82
2018-01-25T00:24:16.825Z,76.64
2018-01-25T00:24:57.418Z,76.54
2018-01-25T00:25:38.817Z,76.82
2018-01-25T00:26:19.367Z,77.4
2018-01-25T00:27:00.897Z,77.69
2018-01-25T00:27:41.891Z,78.16
2018-01-25T00:28:22.194Z,78.93
2018-01-25T00:29:02.764Z,78.6
2018-01-25T00:29:43.179Z,79.08
2018-01-25T00:30:24.192Z,79.31
2018-01-25T00:31:05.270Z,79.5
2018-01-25T00:31:46.719Z,79.27
2018-01-25T00:32:28.142Z,80.8
2018-01-25T00:33:08.453Z,80.22
2018-01-25T00:33:50.034Z,80.7
2018-01-25T00:34:30.512Z,81.56
2018-01-25T00:35:11.317Z,81.37
2018-01-25T00:35:51.589Z,81.18
2018-01-25T00:36:32.170Z,81.66
2018-01-25T00:37:12.582Z,82.52
2018-01-25T00:37:53.554Z,82.14
2018-01-25T00:38:34.663Z,81.27
2018-01-25T00:39:15.294Z,82.32
2018-01-25T00:39:56.012Z,82.14
2018-01-25T00:40:36.841Z,82.04
2018-01-25T00:41:17.451Z,81.56
2018-01-25T00:41:57.846Z,81.56
2018-01-25T00:42:39.338Z,82.23
2018-01-25T00:43:21.554Z,82.71
2018-01-25T00:44:04.279Z,82.52
2018-01-25T00:44:44.688Z,83
2018-01-25T00:45:25.820Z,83.28
2018-01-25T00:46:06.458Z,83.18
2018-01-25T00:46:48.544Z,83.18
2018-01-25T00:47:28.947Z,83.18
2018-01-25T00:48:09.400Z,83.18
2018-01-25T00:48:49.986Z,83.47
2018-01-25T00:49:30.287Z,83.38
2018-01-25T00:50:11.260Z,83.67
2018-01-25T00:50:51.943Z,83.47
2018-01-25T00:51:33.796Z,83.76
2018-01-25T00:52:15.096Z,83.86
2018-01-25T00:52:55.525Z,83.09
2018-01-25T00:53:36.082Z,83.76
2018-01-25T00:54:16.684Z,83.57
2018-01-25T00:54:57.303Z,83.67
2018-01-25T00:55:38.525Z,83.57
2018-01-25T00:56:20.134Z,84.05
2018-01-25T00:57:00.635Z,84.14
2018-01-25T00:57:41.223Z,83.67
2018-01-25T00:58:21.779Z,84.14
2018-01-25T00:59:02.335Z,84.23
2018-01-25T00:59:43.316Z,84.14
2018-01-25T01:00:23.842Z,83.86
2018-01-25T01:01:04.295Z,83.86
2018-01-25T01:01:44.715Z,83.95
2018-01-25T01:02:25.123Z,83.38
2018-01-25T01:03:05.440Z,83.76
2018-01-25T01:03:45.888Z,84.23
2018-01-25T01:04:26.288Z,84.33
2018-01-25T01:05:07.689Z,84.91
2018-01-25T01:05:49.494Z,84.52
2018-01-25T01:06:29.745Z,84.14
2018-01-25T01:07:10.037Z,84.14
2018-01-25T01:34:41.669Z,84.91
2018-01-25T01:35:23.132Z,84.14
2018-01-25T01:36:04.606Z,84.05
2018-01-25T01:36:45.587Z,83.76
2018-01-25T01:37:25.700Z,83.38
2018-01-25T01:38:06.808Z,84.05
2018-01-25T01:38:47.601Z,83.81
2018-01-25T01:39:28.572Z,84.86
2018-01-25T01:40:10.419Z,84.86
2018-01-25T01:52:59.437Z,85.34
2018-01-25T01:53:40.759Z,84.77
2018-01-25T01:54:21.791Z,84.86
2018-01-25T01:55:09.154Z,85.15
2018-01-25T01:55:49.696Z,84.67
2018-01-25T01:56:35.733Z,84.86
2018-01-25T01:57:17.039Z,85.05
2018-01-25T01:57:59.806Z,85.05
2018-01-25T01:58:40.986Z,84.86
2018-01-25T01:59:22.412Z,84.72
2018-01-25T02:00:03.456Z,84.72
2018-01-25T02:00:46.941Z,85.49
2018-01-25T02:01:28.440Z,84.82
2018-01-25T02:02:09.594Z,85.11
2018-01-25T02:02:51.395Z,85.77
2018-01-25T02:03:32.756Z,85.68
2018-01-25T02:04:13.205Z,85.82
2018-01-25T02:04:53.864Z,85.3
2018-01-25T02:05:35.675Z,85.11
2018-01-25T02:07:59.942Z,85.3
2018-01-25T02:10:30.919Z,85.15
2018-01-25T02:12:33.342Z,85.05
2018-01-25T02:17:41.401Z,85.01
2018-01-25T02:18:21.007Z,85.11
2018-01-25T02:19:06.930Z,85.77
2018-01-25T02:19:48.436Z,85.77
2018-01-25T02:20:29.526Z,85.68
2018-01-25T02:21:16.224Z,85.87
2018-01-25T02:21:57.037Z,85.58
2018-01-25T02:22:39.246Z,86.54
2018-01-25T02:28:29.499Z,86.63
2018-01-25T02:36:26.188Z,86.54
2018-01-25T02:37:22.302Z,86.35
2018-01-25T02:38:02.947Z,86.44
2018-01-25T02:38:43.304Z,86.88
2018-01-25T02:39:23.680Z,86.82
2018-01-25T02:40:04.097Z,86.78
2018-01-25T02:40:44.498Z,86.49
2018-01-25T02:41:24.937Z,87.49
2018-01-25T02:42:05.256Z,87.3
2018-01-25T02:42:45.830Z,87.4
2018-01-25T02:43:26.110Z,86.78
2018-01-25T02:44:06.477Z,87.59
2018-01-25T02:44:46.923Z,87.3
2018-01-25T02:45:27.373Z,87.21
2018-01-25T02:46:07.851Z,86.82
2018-01-25T02:46:48.211Z,86.73
2018-01-25T02:47:28.615Z,86.63
2018-01-25T02:48:09.179Z,85.68
2018-01-25T02:48:49.579Z,85.77
2018-01-25T02:49:29.878Z,85.68
2018-01-25T02:50:10.328Z,85.58
2018-01-25T02:50:50.738Z,85.68
2018-01-25T02:51:31.132Z,85.87
2018-01-25T02:52:11.524Z,85.01
2018-01-25T02:52:51.955Z,85.11
2018-01-25T02:53:32.336Z,85.21
2018-01-25T02:54:12.801Z,85.39
2018-01-25T02:54:53.318Z,85.01
2018-01-25T02:55:36.451Z,85.77
2018-01-25T02:56:16.917Z,85.11
2018-01-25T02:56:57.335Z,85.11
2018-01-25T02:57:37.907Z,85.39
2018-01-25T02:58:18.161Z,85.21
2018-01-25T02:58:58.565Z,85.11
2018-01-25T02:59:39.611Z,85.68
2018-01-25T03:00:19.796Z,85.58
2018-01-25T03:01:00.270Z,85.77
2018-01-25T03:01:40.712Z,85.77
2018-01-25T03:02:21.038Z,86.06
2018-01-25T03:03:01.467Z,85.49
2018-01-25T03:03:41.982Z,85.68
2018-01-25T03:04:22.497Z,85.87
2018-01-25T03:05:02.854Z,85.68
2018-01-25T03:05:43.371Z,85.11
2018-01-25T03:06:23.777Z,85.3
2018-01-25T03:07:04.635Z,85.3
2018-01-25T03:07:45.204Z,84.92
2018-01-25T03:08:25.582Z,85.01
2018-01-25T03:09:06.060Z,85.11
2018-01-25T03:09:49.162Z,85.3
2018-01-25T03:10:29.741Z,84.63
2018-01-25T03:11:09.936Z,85.11
2018-01-25T03:11:50.962Z,85.21
2018-01-25T03:12:31.421Z,85.01
2018-01-25T03:13:11.816Z,85.01
2018-01-25T03:13:52.580Z,85.49
2018-01-25T03:14:32.987Z,85.77
2018-01-25T03:15:13.958Z,85.3
2018-01-25T03:15:54.296Z,85.3
2018-01-25T03:16:34.657Z,85.77
2018-01-25T03:17:15.155Z,85.77
2018-01-25T03:17:55.405Z,86.35
2018-01-25T03:18:36.324Z,86.4
2018-01-25T03:22:11.942Z,86.69
2018-01-25T03:23:01.757Z,86.4
2018-01-25T03:23:42.084Z,86.21
2018-01-25T03:24:23.580Z,86.98
2018-01-25T03:25:09.142Z,86.49
2018-01-25T03:25:51.380Z,86.78
2018-01-25T03:26:32.383Z,86.59
2018-01-25T03:27:13.108Z,85.58
2018-01-25T03:27:56.487Z,85.83
2018-01-25T03:28:43.680Z,85.87
2018-01-25T03:29:24.076Z,85.77
2018-01-25T03:30:04.519Z,85.58
2018-01-25T03:30:44.818Z,85.49
2018-01-25T03:31:25.230Z,85.21
2018-01-25T03:32:05.743Z,85.58
2018-01-25T03:32:46.608Z,84.97
2018-01-25T03:33:30.736Z,85.16
2018-01-25T03:34:14.537Z,85.3
2018-01-25T03:34:59.955Z,85.73
2018-01-25T03:35:40.311Z,85.68
2018-01-25T03:36:20.831Z,85.35
2018-01-25T03:37:01.285Z,85.73
2018-01-25T03:37:41.652Z,86.11
2018-01-25T03:38:24.093Z,85.83
2018-01-25T03:39:05.190Z,86.3
2018-01-25T03:39:45.525Z,86.49
2018-01-25T03:40:25.956Z,87.16
2018-01-25T03:41:10.322Z,86.4
2018-01-25T03:43:04.235Z,86.11
2018-01-25T03:53:29.451Z,85.73
2018-01-25T03:54:17.606Z,85.73
2018-01-25T03:58:52.980Z,84.78
2018-01-25T04:03:02.072Z,83.39
2018-01-25T04:03:51.184Z,83.73
2018-01-25T04:46:50.052Z,89.94
2018-01-25T04:53:54.810Z,90.46
2018-01-25T04:54:45.897Z,90.17
2018-01-25T04:57:14.592Z,90.08
2018-01-25T04:58:04.138Z,90.08
2018-01-25T05:01:20.091Z,90.94
2018-01-25T05:03:20.939Z,91.41
2018-01-25T05:05:04.023Z,91.89
2018-01-25T05:05:52.189Z,92.27
2018-01-25T05:12:26.404Z,90.84
2018-01-25T05:14:44.509Z,91.03
2018-01-25T05:17:31.352Z,91.31
2018-01-25T05:20:00.947Z,91.84
2018-01-25T05:25:24.157Z,90.79
2018-01-25T05:26:17.949Z,90.6
2018-01-25T05:27:14.959Z,90.6
2018-01-25T05:28:10.297Z,89.94
2018-01-25T05:36:51.925Z,88.98
2018-01-25T05:46:51.027Z,89.51
2018-01-25T05:55:49.707Z,90.5
2018-01-25T05:59:32.919Z,90.6
2018-01-25T06:01:31.026Z,90.5
2018-01-25T06:02:25.775Z,90.08
2018-01-25T06:10:50.908Z,92.36
2018-01-25T06:13:10.413Z,92.84
2018-01-25T06:14:06.972Z,92.55
2018-01-25T06:29:39.375Z,93.41
2018-01-25T06:31:19.687Z,93.98
2018-01-25T06:33:47.619Z,92.79
2018-01-25T06:34:45.315Z,92.22
2018-01-25T06:35:37.630Z,91.46
2018-01-25T06:36:36.017Z,91.46
2018-01-25T06:37:30.871Z,90.79
2018-01-25T06:38:27.163Z,90.31
2018-01-25T06:39:23.152Z,90.41
2018-01-25T06:40:18.290Z,90.41
2018-01-25T06:41:12.950Z,90.31
2018-01-25T06:42:09.006Z,91.17
2018-01-25T06:43:06.068Z,91.27
2018-01-25T06:44:00.109Z,91.17
2018-01-25T06:44:58.009Z,91.17
2018-01-25T06:45:55.255Z,90.6
2018-01-25T06:46:50.778Z,90.6
2018-01-25T06:47:47.906Z,89.65
2018-01-25T06:48:46.400Z,90.7
2018-01-25T06:49:59.232Z,90.89
2018-01-25T06:51:56.466Z,90.5
2018-01-25T06:52:36.692Z,91.08
2018-01-25T06:53:18.153Z,90.6
2018-01-25T06:53:58.532Z,90.7
2018-01-25T06:54:39.062Z,90.89
2018-01-25T06:55:19.992Z,90.98
2018-01-25T06:56:00.857Z,91.08
2018-01-25T06:56:41.490Z,90.7
2018-01-25T06:57:22.171Z,90.7
2018-01-25T06:58:02.700Z,90.6
2018-01-25T06:58:43.459Z,90.98
2018-01-25T06:59:24.082Z,90.98
2018-01-25T07:00:04.852Z,90.7
2018-01-25T07:00:45.656Z,91.17
2018-01-25T07:01:27.531Z,91.08
2018-01-25T07:02:10.078Z,91.27
2018-01-25T07:02:52.708Z,90.79
2018-01-25T07:03:34.214Z,91.46
2018-01-25T07:04:14.249Z,90.7
2018-01-25T07:04:55.970Z,91.08
2018-01-25T07:05:37.179Z,90.79
2018-01-25T07:06:22.116Z,90.89
2018-01-25T07:07:02.592Z,91.36
2018-01-25T07:07:43.919Z,90.7
2018-01-25T07:08:29.102Z,90.6
2018-01-25T07:09:08.057Z,91.08
2018-01-25T07:09:50.833Z,90.5
2018-01-25T07:10:32.237Z,90.5
2018-01-25T07:11:13.000Z,91.17
2018-01-25T07:11:53.434Z,90.89
2018-01-25T07:12:34.651Z,90.98
2018-01-25T07:13:15.834Z,90.7
2018-01-25T07:13:59.553Z,90.98
2018-01-25T07:14:40.200Z,90.79
2018-01-25T07:15:21.037Z,91.08
2018-01-25T07:16:02.760Z,90.6
2018-01-25T07:16:45.070Z,90.7
2018-01-25T07:17:26.186Z,90.79
2018-01-25T07:18:07.417Z,91.27
2018-01-25T07:18:49.645Z,91.65
2018-01-25T07:19:30.294Z,91.84
2018-01-25T07:20:12.149Z,91.94
2018-01-25T07:20:52.819Z,92.22
2018-01-25T07:21:34.190Z,92.03
2018-01-25T07:22:16.011Z,91.17
2018-01-25T07:22:56.505Z,91.55
2018-01-25T07:23:37.808Z,90.79
2018-01-25T07:24:19.698Z,90.6
2018-01-25T07:25:00.202Z,90.22
2018-01-25T07:25:40.884Z,90.79
2018-01-25T07:26:21.465Z,90.6
2018-01-25T07:27:03.956Z,90.5
2018-01-25T07:30:52.499Z,90.98
2018-01-25T07:44:14.611Z,90.79
2018-01-25T07:49:33.319Z,92.89
2018-01-25T07:50:27.545Z,92.5
2018-01-25T07:51:21.644Z,93.08
2018-01-25T07:52:16.757Z,92.6
2018-01-25T07:53:10.444Z,93.17
2018-01-25T07:54:04.521Z,92.22
2018-01-25T07:54:59.013Z,92.03
2018-01-25T07:55:54.082Z,92.03
2018-01-25T07:56:52.200Z,91.84
2018-01-25T07:57:44.889Z,92.13
2018-01-25T07:58:37.653Z,92.22
2018-01-25T07:59:30.927Z,91.84
2018-01-25T08:00:23.681Z,91.55
2018-01-25T08:01:16.511Z,91.27
2018-01-25T08:02:09.932Z,90.98
2018-01-25T08:03:06.643Z,91.36
2018-01-25T08:04:08.554Z,90.89
2018-01-25T08:05:01.469Z,90.98
2018-01-25T08:05:56.904Z,90.6
2018-01-25T08:06:59.143Z,91.08
2018-01-25T08:08:05.172Z,90.89
2018-01-25T08:09:02.138Z,91.17
2018-01-25T08:14:27.548Z,90.79
2018-01-25T08:15:22.266Z,91.17
2018-01-25T08:16:14.972Z,91.17
2018-01-25T08:17:15.314Z,91.27
2018-01-25T08:18:16.556Z,90.98
2018-01-25T08:26:13.119Z,92.03
2018-01-25T08:39:01.656Z,90.64
2018-01-25T08:39:54.704Z,90.93
2018-01-25T08:40:48.265Z,90.45
2018-01-25T08:41:42.147Z,89.79
2018-01-25T08:42:35.728Z,89.4
2018-01-25T09:10:34.285Z,91.5
2018-01-25T09:11:30.368Z,91.6
2018-01-25T09:12:28.068Z,91.41
2018-01-25T09:16:15.709Z,90.26
2018-01-25T09:18:14.353Z,90.08
2018-01-25T09:18:55.046Z,90.55
2018-01-25T09:19:36.284Z,90.45
2018-01-25T09:20:17.115Z,90.08
2018-01-25T09:20:57.868Z,90.64
2018-01-25T09:35:04.081Z,89.4
2018-01-25T09:35:44.150Z,89.12
2018-01-25T09:36:25.886Z,89.03
2018-01-25T09:46:28.973Z,87.21
2018-01-25T09:49:12.097Z,86.26
2018-01-25T09:51:48.860Z,86.36
2018-01-25T09:52:53.525Z,84.92
2018-01-25T09:53:50.413Z,86.26
2018-01-25T09:54:42.239Z,85.31
2018-01-25T09:55:35.602Z,85.78
2018-01-25T09:56:28.011Z,85.21
2018-01-25T09:57:13.027Z,85.69
2018-01-25T09:57:53.426Z,84.83
2018-01-25T09:58:33.802Z,85.69
2018-01-25T09:59:14.190Z,85.69
2018-01-25T09:59:54.567Z,85.12
2018-01-25T10:00:34.993Z,85.78
2018-01-25T10:01:15.769Z,85.21
2018-01-25T10:01:56.548Z,85.5
2018-01-25T10:02:37.611Z,86.36
2018-01-25T10:03:17.502Z,85.31
2018-01-25T10:03:58.330Z,85.41
2018-01-25T10:04:38.775Z,85.31
2018-01-25T10:42:31.153Z,89.32
2018-01-25T10:43:24.656Z,88.75
2018-01-25T10:44:16.118Z,89.22
2018-01-25T10:45:08.064Z,90.17
2018-01-25T10:45:50.596Z,90.36
2018-01-25T10:46:31.072Z,90.46
2018-01-25T10:47:11.545Z,89.51
2018-01-25T10:47:52.002Z,89.79
2018-01-25T10:48:32.437Z,89.41
2018-01-25T10:49:12.773Z,90.08
2018-01-25T10:49:53.165Z,90.46
2018-01-25T10:50:33.566Z,90.84
2018-01-25T10:51:13.977Z,90.17
2018-01-25T10:51:54.330Z,89.89
2018-01-25T10:52:34.791Z,90.08
2018-01-25T10:53:15.325Z,90.08
2018-01-25T10:53:55.696Z,88.84
2018-01-25T10:54:36.116Z,88.84
2018-01-25T10:55:17.052Z,89.13
2018-01-25T10:55:58.051Z,88.75
2018-01-25T10:56:37.731Z,88.84
2018-01-25T10:57:18.409Z,88.93
2018-01-25T10:57:59.230Z,88.22
2018-01-25T10:58:39.516Z,87.89
2018-01-25T10:59:20.278Z,87.07
2018-01-25T11:00:01.142Z,87.65
2018-01-25T11:00:41.779Z,87.17
2018-01-25T11:01:22.191Z,86.98
2018-01-25T11:02:03.746Z,87.36
2018-01-25T11:02:44.195Z,88.12
2018-01-25T11:03:24.940Z,87.55
2018-01-25T11:04:05.429Z,87.17
2018-01-25T11:04:47.471Z,87.07
2018-01-25T11:05:28.163Z,87.93
2018-01-25T11:06:09.083Z,87.36
2018-01-25T11:06:50.088Z,87.27
2018-01-25T11:07:30.433Z,87.36
2018-01-25T11:08:11.350Z,86.93
2018-01-25T11:08:52.586Z,86.74
2018-01-25T11:09:33.357Z,86.74
2018-01-25T11:10:13.777Z,86.07
2018-01-25T11:10:54.573Z,85.78
2018-01-25T11:11:35.288Z,85.5
2018-01-25T11:12:16.015Z,86.26
2018-01-25T11:12:56.455Z,85.97
2018-01-25T11:13:36.860Z,85.31
2018-01-25T11:14:17.286Z,85.97
2018-01-25T11:14:57.956Z,85.6
2018-01-25T11:15:55.253Z,86.16
2018-01-25T11:16:35.216Z,86.55
2018-01-25T11:17:15.816Z,85.46
2018-01-25T11:18:12.056Z,86.22
2018-01-25T11:20:16.542Z,86.51
2018-01-25T11:21:05.478Z,85.84
2018-01-25T11:21:54.191Z,85.88
2018-01-25T11:22:42.863Z,86.69
2018-01-25T11:23:31.606Z,85.69
2018-01-25T11:24:23.028Z,85.69
2018-01-25T11:25:09.485Z,86.74
2018-01-25T11:25:58.825Z,86.26
2018-01-25T11:26:47.789Z,86.36
2018-01-25T11:27:36.943Z,86.36
2018-01-25T11:28:26.950Z,86.16
2018-01-25T11:29:15.862Z,85.5
2018-01-25T11:31:39.297Z,85.21
2018-01-25T11:32:25.566Z,85.69
2018-01-25T11:36:52.154Z,83.69
2018-01-25T11:37:41.542Z,84.64
2018-01-25T11:38:32.362Z,84.07
2018-01-25T11:39:21.014Z,84.59
2018-01-25T11:40:09.761Z,84.97
2018-01-25T11:42:37.104Z,83.44
2018-01-25T11:43:39.116Z,83.92
2018-01-25T11:46:48.058Z,84.01
2018-01-25T11:47:37.380Z,83.83
2018-01-25T11:48:26.051Z,82.68
2018-01-25T11:49:16.641Z,83.35
2018-01-25T11:50:06.033Z,84.01
2018-01-25T11:50:54.656Z,84.3
2018-01-25T11:53:01.898Z,84.01
2018-01-25T11:53:55.811Z,84.97
2018-01-25T11:54:48.460Z,83.92
2018-01-25T11:55:41.658Z,84.2
2018-01-25T11:56:34.907Z,84.01
2018-01-25T11:57:31.209Z,84.01
2018-01-25T11:58:24.491Z,83.44
2018-01-25T11:59:19.116Z,83.25
2018-01-25T12:02:13.674Z,85.25
2018-01-25T12:03:05.838Z,84.69
2018-01-25T12:03:54.271Z,84.78
2018-01-25T12:04:44.184Z,84.11
2018-01-25T12:05:32.442Z,84.3
2018-01-25T12:06:20.851Z,84.3
2018-01-25T12:14:10.555Z,87.12
2018-01-25T12:15:06.923Z,87.98
2018-01-25T12:16:02.312Z,88.36
2018-01-25T12:16:57.783Z,88.36
2018-01-25T12:17:53.198Z,87.98
2018-01-25T12:18:49.941Z,88.55
2018-01-25T12:19:42.971Z,88.36
2018-01-25T12:20:37.782Z,89.31
2018-01-25T12:21:31.342Z,88.74
2018-01-25T12:22:25.068Z,89.4
2018-01-25T12:23:17.883Z,89.4
2018-01-25T12:24:12.529Z,89.22
2018-01-25T12:25:03.481Z,88.07
2018-01-25T12:25:57.287Z,88.17
2018-01-25T12:26:51.965Z,87.88
2018-01-25T12:29:54.390Z,88.17
2018-01-25T12:30:55.709Z,87.12
2018-01-25T12:31:48.895Z,87.79
2018-01-25T12:32:45.299Z,87.88
2018-01-25T12:33:38.273Z,88.17
2018-01-25T12:34:36.617Z,86.49
2018-01-25T12:35:31.409Z,86.4
2018-01-25T12:36:24.992Z,86.4
2018-01-25T12:37:20.956Z,87.26
2018-01-25T12:38:15.408Z,87.07
2018-01-25T12:39:13.885Z,86.11
2018-01-25T12:40:08.221Z,87.26
2018-01-25T12:41:10.440Z,86.59
2018-01-25T12:42:13.200Z,84.88
2018-01-25T12:43:09.295Z,84.3
2018-01-25T12:44:03.388Z,84.11
2018-01-25T12:45:01.611Z,83.16
2018-01-25T12:45:53.175Z,85.01
2018-01-25T12:46:51.978Z,82.43
2018-01-25T12:51:23.171Z,79.67
2018-01-25T12:52:17.128Z,80.53
2018-01-25T12:53:14.275Z,78.62
2018-01-25T12:54:07.051Z,77.28
2018-01-25T12:55:00.903Z,78.23
2018-01-25T12:57:33.225Z,77.89
2018-01-25T12:58:29.820Z,78.18
2018-01-25T12:59:25.893Z,78.18
2018-01-25T13:00:23.554Z,77.23
2018-01-25T13:01:17.977Z,78.47
2018-01-25T13:02:11.928Z,78.56
2018-01-25T13:03:05.989Z,77.99
2018-01-25T13:04:01.323Z,78.18
2018-01-25T13:04:57.177Z,77.03
2018-01-25T13:05:54.191Z,77.13
2018-01-25T13:06:48.672Z,76.46
2018-01-25T13:07:50.131Z,75.51
2018-01-25T13:13:33.002Z,74.02
2018-01-25T13:14:29.103Z,74.08
2018-01-25T13:15:26.937Z,74.55
2018-01-25T14:00:52.615Z,72.55
2018-01-25T14:01:41.855Z,72.26
2018-01-25T14:02:33.876Z,72.74
2018-01-25T14:03:22.919Z,72.64
2018-01-25T14:04:11.474Z,73.03
2018-01-25T14:05:01.020Z,73.79
2018-01-25T14:28:41.139Z,78.67
2018-01-25T14:29:29.529Z,79.06
2018-01-25T14:30:19.308Z,79.63
2018-01-25T14:31:11.899Z,79.82
2018-01-25T14:32:02.175Z,79.53
2018-01-25T14:32:53.757Z,79.35
2018-01-25T14:33:44.164Z,80.39
2018-01-25T14:34:34.328Z,79.15
2018-01-25T14:35:25.346Z,78.86
2018-01-25T14:36:16.178Z,79.15
2018-01-25T14:37:07.525Z,79.25
2018-01-25T14:37:56.902Z,80.3
2018-01-25T14:48:11.636Z,81.15
2018-01-25T14:49:01.364Z,81.25
2018-01-25T14:49:53.889Z,81.63
2018-01-25T14:50:43.776Z,82.63
2018-01-25T14:51:33.401Z,81.38
2018-01-25T14:52:21.971Z,81.92
2018-01-25T16:43:21.022Z,98.41
2018-01-25T16:44:06.984Z,99.17
2018-01-25T16:47:26.172Z,99.6
2018-01-25T16:48:11.249Z,99.51
2018-01-25T16:48:52.012Z,99.41
2018-01-25T16:49:33.681Z,98.36
2018-01-25T16:50:14.180Z,98.08
2018-01-25T16:50:54.619Z,97.17
2018-01-25T16:51:35.185Z,96.8
2018-01-25T16:52:15.619Z,97.08
2018-01-25T16:52:56.185Z,96.12
2018-01-25T16:53:37.157Z,95.65
2018-01-25T16:54:18.784Z,94.51
2018-01-25T16:55:00.127Z,94.17
2018-01-25T16:55:41.358Z,92.46
2018-01-25T16:56:21.712Z,91.41
2018-01-25T16:57:02.267Z,91.98
2018-01-25T16:57:42.871Z,90.74
2018-01-25T16:58:23.278Z,90.64
2018-01-25T16:59:03.677Z,90.36
2018-01-25T16:59:44.077Z,90.36
2018-01-25T17:00:24.474Z,89.89
2018-01-25T17:01:04.938Z,89.22
2018-01-25T17:01:45.671Z,88.98
2018-01-25T17:02:26.873Z,88.4
2018-01-25T17:03:07.856Z,87.93
2018-01-25T17:03:47.899Z,87.16
2018-01-25T17:04:29.873Z,87.45
2018-01-25T17:05:10.472Z,86.88
2018-01-25T17:05:51.800Z,86.59
2018-01-25T17:06:34.357Z,86.49
2018-01-25T17:07:14.172Z,86.69
2018-01-25T17:07:54.459Z,85.73
2018-01-25T17:08:35.880Z,85.06
2018-01-25T17:09:16.182Z,85.73
2018-01-25T17:09:57.957Z,85.54
2018-01-25T17:10:38.962Z,85.64
2018-01-25T17:11:20.596Z,85.54
2018-01-25T17:12:00.485Z,86.3
2018-01-25T17:12:41.546Z,86.98
2018-01-25T17:13:22.027Z,86.21
2018-01-25T17:14:03.414Z,86.3
2018-01-25T17:14:44.412Z,86.69
2018-01-25T17:15:23.773Z,86.3
2018-01-25T17:16:04.506Z,86.11
2018-01-25T17:16:45.450Z,85.64
2018-01-25T17:17:26.012Z,85.35
2018-01-25T17:18:07.374Z,85.06
2018-01-25T17:18:47.528Z,85.54
2018-01-25T17:19:28.885Z,84.59
2018-01-25T17:20:08.493Z,85.64
2018-01-25T17:20:49.909Z,85.45
2018-01-25T17:21:29.876Z,84.97
2018-01-25T17:22:10.662Z,85.54
2018-01-25T17:22:51.715Z,84.88
2018-01-25T17:23:32.478Z,85.06
2018-01-25T17:24:13.139Z,84.97
2018-01-25T17:24:54.449Z,85.64
2018-01-25T17:25:34.184Z,85.64
2018-01-25T17:26:14.721Z,85.06
2018-01-25T17:26:55.126Z,85.06
2018-01-25T17:27:35.602Z,85.3
2018-01-25T17:28:15.997Z,84.72
2018-01-25T17:28:56.378Z,84.92
2018-01-25T17:29:36.814Z,84.06
2018-01-25T17:30:17.617Z,84.25
2018-01-25T17:30:58.313Z,84.16
2018-01-25T17:31:38.737Z,83.96
2018-01-25T17:32:19.242Z,83.29
2018-01-25T17:32:59.612Z,83.2
2018-01-25T17:33:40.069Z,83.58
2018-01-25T17:36:22.400Z,83.2
2018-01-25T17:37:03.730Z,82.82
2018-01-25T17:37:44.885Z,83.39
2018-01-25T17:38:25.404Z,83.77
2018-01-25T17:39:06.371Z,83.2
2018-01-25T17:41:04.209Z,82.43
2018-01-25T17:41:44.593Z,83.54
2018-01-25T17:42:25.091Z,83.54
2018-01-25T17:43:05.523Z,83.73
2018-01-25T17:43:45.981Z,83.44
2018-01-25T17:44:27.057Z,83.54
2018-01-25T17:45:06.841Z,83.73
2018-01-25T17:45:47.725Z,83.73
2018-01-25T17:47:52.783Z,83.25
2018-01-25T17:48:58.232Z,83.64
2018-01-25T17:49:56.479Z,83.35
2018-01-25T17:51:52.107Z,84.11
2018-01-25T17:52:31.132Z,84.2
2018-01-25T17:53:11.557Z,83.73
2018-01-25T17:53:51.996Z,84.97
2018-01-25T17:54:32.435Z,85.25
2018-01-25T17:55:12.847Z,84.97
2018-01-25T17:55:53.215Z,85.69
2018-01-25T17:56:33.634Z,85.35
2018-01-25T17:57:14.033Z,85.73
2018-01-25T17:57:54.407Z,85.64
2018-01-25T17:58:34.808Z,85.54
2018-01-25T17:59:15.209Z,85.35
2018-01-25T17:59:55.609Z,85.69
2018-01-25T18:00:36.084Z,85.73
2018-01-25T18:01:16.462Z,86.3
2018-01-25T18:01:56.792Z,85.64
2018-01-25T18:02:37.175Z,85.83
2018-01-25T18:03:17.604Z,85.64
2018-01-25T18:03:58.032Z,85.21
2018-01-25T18:04:38.741Z,85.12
2018-01-25T18:05:19.253Z,85.21
2018-01-25T18:05:59.569Z,85.45
2018-01-25T18:06:40.036Z,85.69
2018-01-25T18:07:20.443Z,85.73
2018-01-25T18:08:00.796Z,85.64
2018-01-25T18:08:41.147Z,85.73
2018-01-25T18:09:21.532Z,85.54
2018-01-25T18:10:01.981Z,85.64
2018-01-25T18:10:42.342Z,84.78
2018-01-25T18:11:22.689Z,84.69
2018-01-25T18:12:03.136Z,84.59
2018-01-25T18:12:43.516Z,85.06
2018-01-25T18:13:23.940Z,84.69
2018-01-25T18:14:04.438Z,84.74
2018-01-25T18:14:44.758Z,84.59
2018-01-25T18:15:25.132Z,84.2
2018-01-25T18:16:05.541Z,83.69
2018-01-25T18:16:45.968Z,83.97
2018-01-25T18:17:26.301Z,83.88
2018-01-25T18:18:06.733Z,84.55
2018-01-25T18:18:47.090Z,85.12
2018-01-25T18:19:27.465Z,85.02
2018-01-25T18:20:07.834Z,84.64
2018-01-25T18:20:48.211Z,84.92
2018-01-25T18:21:28.625Z,83.88
2018-01-25T18:22:09.045Z,84.36
2018-01-25T18:22:49.437Z,83.88
2018-01-25T18:23:29.840Z,84.16
2018-01-25T18:24:10.266Z,84.07
2018-01-25T18:24:50.607Z,85.02
2018-01-25T18:25:31.000Z,85.5
2018-01-25T18:26:11.412Z,85.6
2018-01-25T18:26:51.854Z,85.5
2018-01-25T18:27:32.334Z,85.46
2018-01-25T18:28:12.638Z,85.41
2018-01-25T18:28:53.012Z,85.55
2018-01-25T18:29:33.397Z,85.36
2018-01-25T18:30:13.788Z,85.64
2018-01-25T18:30:54.208Z,86.22
2018-01-25T18:31:34.549Z,85.74
2018-01-25T18:32:15.031Z,86.32
2018-01-25T18:32:55.361Z,85.84
2018-01-25T18:33:35.799Z,86.32
2018-01-25T18:34:16.137Z,86.22
2018-01-25T18:34:56.581Z,86.41
2018-01-25T18:35:36.973Z,87.27
2018-01-25T18:36:17.406Z,87.17
2018-01-25T18:36:57.798Z,87.17
2018-01-25T18:37:38.202Z,87.07
2018-01-25T18:38:18.636Z,87.17
2018-01-25T18:38:58.983Z,88.6
2018-01-25T18:40:56.701Z,88.41
2018-01-25T18:41:36.897Z,87.84
2018-01-25T18:43:49.520Z,88.22
2018-01-25T18:44:29.861Z,88.03
2018-01-25T18:45:10.283Z,88.51
2018-01-25T18:45:50.689Z,88.37
2018-01-25T18:46:31.122Z,88.98
2018-01-25T18:47:11.508Z,88.18
2018-01-25T18:47:51.904Z,87.89
2018-01-25T18:48:32.289Z,87.79
2018-01-25T18:49:12.705Z,88.08
2018-01-25T18:49:53.121Z,88.93
2018-01-25T18:50:33.500Z,88.84
2018-01-25T18:51:13.910Z,88.75
2018-01-25T18:51:54.246Z,88.56
2018-01-25T18:52:34.650Z,88.18
2018-01-25T18:53:15.039Z,87.89
2018-01-25T18:53:55.448Z,88.08
2018-01-25T18:54:35.852Z,88.37
2018-01-25T18:55:16.280Z,88.65
2018-01-25T18:55:56.696Z,87.7
2018-01-25T18:56:37.117Z,88.37
2018-01-25T18:57:17.489Z,88.56
2018-01-25T18:57:57.886Z,88.84
2018-01-25T18:58:38.258Z,88.65
2018-01-25T18:59:18.629Z,88.93
2018-01-25T18:59:59.019Z,88.56
2018-01-25T19:00:39.445Z,89.13
2018-01-25T19:01:19.866Z,88.75
2018-01-25T19:02:00.221Z,88.75
2018-01-25T19:02:40.624Z,88.56
2018-01-25T19:03:21.032Z,88.84
2018-01-25T19:04:01.396Z,89.22
2018-01-25T19:04:41.790Z,88.84
2018-01-25T19:05:22.212Z,89.03
2018-01-25T19:06:02.518Z,89.13
2018-01-25T19:06:42.951Z,88.84
2018-01-25T19:07:23.314Z,89.03
2018-01-25T19:08:03.710Z,88.93
2018-01-25T19:08:44.031Z,89.41
2018-01-25T19:09:24.482Z,89.79
2018-01-25T19:10:04.822Z,89.61
2018-01-25T19:10:45.254Z,89.51
2018-01-25T19:11:25.639Z,90.27
2018-01-25T19:12:06.021Z,89.61
2018-01-25T19:12:46.415Z,89.61
2018-01-25T19:13:26.853Z,89.61
2018-01-25T19:14:07.236Z,89.61
2018-01-25T19:14:47.616Z,89.7
2018-01-25T19:15:28.015Z,90.08